sensor_id;sensor_type;location;lat;lon;timestamp;P1;durP1;ratioP1;P2;durP2;ratioP2
1382;SDS011;685;47.196;11.880;2022-07-23T00:01:19;5.03;;;4.63;;
1382;SDS011;685;47.196;11.880;2022-07-23T00:03:46;6.90;;;5.80;;
1382;SDS011;685;47.196;11.880;2022-07-23T00:06:13;5.97;;;5.37;;
1382;SDS011;685;47.196;11.880;2022-07-23T00:08:42;6.03;;;5.50;;
1382;SDS011;685;47.196;11.880;2022-07-23T00:11:09;7.93;;;5.47;;
1382;SDS011;685;47.196;11.880;2022-07-23T00:13:36;5.47;;;4.97;;
1382;SDS011;685;47.196;11.880;2022-07-23T00:16:03;6.47;;;5.70;;
1382;SDS011;685;47.196;11.880;2022-07-23T00:18:31;6.47;;;5.87;;
1382;SDS011;685;47.196;11.880;2022-07-23T00:20:58;6.00;;;5.40;;
1382;SDS011;685;47.196;11.880;2022-07-23T00:23:25;6.40;;;5.00;;
1382;SDS011;685;47.196;11.880;2022-07-23T00:25:53;5.87;;;5.27;;
1382;SDS011;685;47.196;11.880;2022-07-23T00:28:20;5.90;;;5.30;;
1382;SDS011;685;47.196;11.880;2022-07-23T00:30:47;5.63;;;4.50;;
1382;SDS011;685;47.196;11.880;2022-07-23T00:33:14;4.57;;;4.00;;
1382;SDS011;685;47.196;11.880;2022-07-23T00:35:41;5.17;;;4.67;;
1382;SDS011;685;47.196;11.880;2022-07-23T00:38:09;5.27;;;4.77;;
1382;SDS011;685;47.196;11.880;2022-07-23T00:40:37;6.03;;;5.23;;
1382;SDS011;685;47.196;11.880;2022-07-23T00:43:05;5.00;;;4.60;;
1382;SDS011;685;47.196;11.880;2022-07-23T00:45:33;5.70;;;4.43;;
1382;SDS011;685;47.196;11.880;2022-07-23T00:48:00;4.53;;;4.13;;
1382;SDS011;685;47.196;11.880;2022-07-23T00:50:27;5.40;;;4.53;;
1382;SDS011;685;47.196;11.880;2022-07-23T00:52:54;4.37;;;3.97;;
1382;SDS011;685;47.196;11.880;2022-07-23T00:55:22;5.30;;;4.73;;
1382;SDS011;685;47.196;11.880;2022-07-23T00:57:49;5.00;;;4.50;;
1382;SDS011;685;47.196;11.880;2022-07-23T01:00:18;5.47;;;4.97;;
1382;SDS011;685;47.196;11.880;2022-07-23T01:02:45;5.80;;;4.80;;
1382;SDS011;685;47.196;11.880;2022-07-23T01:05:12;6.47;;;4.90;;
1382;SDS011;685;47.196;11.880;2022-07-23T01:07:39;5.70;;;5.07;;
1382;SDS011;685;47.196;11.880;2022-07-23T01:10:07;6.07;;;5.10;;
1382;SDS011;685;47.196;11.880;2022-07-23T01:12:48;5.13;;;4.37;;
1382;SDS011;685;47.196;11.880;2022-07-23T01:15:15;5.20;;;4.43;;
1382;SDS011;685;47.196;11.880;2022-07-23T01:17:43;5.53;;;5.03;;
1382;SDS011;685;47.196;11.880;2022-07-23T01:20:10;7.73;;;4.90;;
1382;SDS011;685;47.196;11.880;2022-07-23T01:22:39;4.67;;;4.13;;
1382;SDS011;685;47.196;11.880;2022-07-23T01:25:06;4.80;;;4.07;;
1382;SDS011;685;47.196;11.880;2022-07-23T01:27:34;4.43;;;4.03;;
1382;SDS011;685;47.196;11.880;2022-07-23T01:30:02;6.40;;;4.30;;
1382;SDS011;685;47.196;11.880;2022-07-23T01:32:30;6.47;;;4.97;;
1382;SDS011;685;47.196;11.880;2022-07-23T01:34:57;5.03;;;4.57;;
1382;SDS011;685;47.196;11.880;2022-07-23T01:37:24;5.87;;;5.30;;
1382;SDS011;685;47.196;11.880;2022-07-23T01:39:52;5.13;;;4.63;;
1382;SDS011;685;47.196;11.880;2022-07-23T01:42:19;5.97;;;4.70;;
1382;SDS011;685;47.196;11.880;2022-07-23T01:44:46;5.43;;;4.90;;
1382;SDS011;685;47.196;11.880;2022-07-23T01:47:13;6.27;;;4.63;;
1382;SDS011;685;47.196;11.880;2022-07-23T01:49:40;5.47;;;4.90;;
1382;SDS011;685;47.196;11.880;2022-07-23T01:52:07;4.97;;;4.47;;
1382;SDS011;685;47.196;11.880;2022-07-23T01:54:36;5.60;;;4.13;;
1382;SDS011;685;47.196;11.880;2022-07-23T01:57:06;5.03;;;4.53;;
1382;SDS011;685;47.196;11.880;2022-07-23T01:59:33;7.13;;;4.60;;
1382;SDS011;685;47.196;11.880;2022-07-23T02:02:01;4.80;;;4.27;;
1382;SDS011;685;47.196;11.880;2022-07-23T02:04:30;5.83;;;4.70;;
1382;SDS011;685;47.196;11.880;2022-07-23T02:07:00;5.13;;;4.63;;
1382;SDS011;685;47.196;11.880;2022-07-23T02:09:28;5.70;;;4.67;;
1382;SDS011;685;47.196;11.880;2022-07-23T02:11:55;6.30;;;5.70;;
1382;SDS011;685;47.196;11.880;2022-07-23T02:14:24;4.80;;;4.37;;
1382;SDS011;685;47.196;11.880;2022-07-23T02:16:51;5.20;;;4.30;;
1382;SDS011;685;47.196;11.880;2022-07-23T02:19:18;5.97;;;5.47;;
1382;SDS011;685;47.196;11.880;2022-07-23T02:21:45;7.53;;;4.93;;
1382;SDS011;685;47.196;11.880;2022-07-23T02:24:12;5.37;;;4.87;;
1382;SDS011;685;47.196;11.880;2022-07-23T02:26:39;5.97;;;4.57;;
1382;SDS011;685;47.196;11.880;2022-07-23T02:29:06;5.37;;;4.80;;
1382;SDS011;685;47.196;11.880;2022-07-23T02:31:35;5.27;;;4.77;;
1382;SDS011;685;47.196;11.880;2022-07-23T02:34:02;5.10;;;4.60;;
1382;SDS011;685;47.196;11.880;2022-07-23T02:36:29;5.87;;;5.10;;
1382;SDS011;685;47.196;11.880;2022-07-23T02:38:56;5.83;;;4.77;;
1382;SDS011;685;47.196;11.880;2022-07-23T02:41:23;5.60;;;4.57;;
1382;SDS011;685;47.196;11.880;2022-07-23T02:43:51;4.70;;;4.27;;
1382;SDS011;685;47.196;11.880;2022-07-23T02:46:18;5.53;;;4.97;;
1382;SDS011;685;47.196;11.880;2022-07-23T02:48:46;5.73;;;4.30;;
1382;SDS011;685;47.196;11.880;2022-07-23T02:51:13;4.80;;;4.40;;
1382;SDS011;685;47.196;11.880;2022-07-23T02:53:40;5.77;;;5.27;;
1382;SDS011;685;47.196;11.880;2022-07-23T02:56:07;5.20;;;4.70;;
1382;SDS011;685;47.196;11.880;2022-07-23T02:58:34;6.13;;;5.53;;
1382;SDS011;685;47.196;11.880;2022-07-23T03:01:01;7.27;;;4.63;;
1382;SDS011;685;47.196;11.880;2022-07-23T03:03:29;6.07;;;5.47;;
1382;SDS011;685;47.196;11.880;2022-07-23T03:05:57;4.73;;;4.30;;
1382;SDS011;685;47.196;11.880;2022-07-23T03:08:24;9.00;;;4.80;;
1382;SDS011;685;47.196;11.880;2022-07-23T03:10:51;5.10;;;4.63;;
1382;SDS011;685;47.196;11.880;2022-07-23T03:13:18;9.67;;;6.20;;
1382;SDS011;685;47.196;11.880;2022-07-23T03:15:45;6.97;;;4.97;;
1382;SDS011;685;47.196;11.880;2022-07-23T03:18:12;4.93;;;4.33;;
1382;SDS011;685;47.196;11.880;2022-07-23T03:20:39;5.47;;;4.97;;
1382;SDS011;685;47.196;11.880;2022-07-23T03:23:08;6.63;;;5.50;;
1382;SDS011;685;47.196;11.880;2022-07-23T03:25:35;4.77;;;4.37;;
1382;SDS011;685;47.196;11.880;2022-07-23T03:28:02;6.97;;;5.20;;
1382;SDS011;685;47.196;11.880;2022-07-23T03:30:29;7.80;;;5.53;;
1382;SDS011;685;47.196;11.880;2022-07-23T03:32:56;7.30;;;5.50;;
1382;SDS011;685;47.196;11.880;2022-07-23T03:35:23;5.73;;;5.03;;
1382;SDS011;685;47.196;11.880;2022-07-23T03:37:50;5.43;;;4.93;;
1382;SDS011;685;47.196;11.880;2022-07-23T03:40:18;6.40;;;5.13;;
1382;SDS011;685;47.196;11.880;2022-07-23T03:42:45;5.60;;;5.10;;
1382;SDS011;685;47.196;11.880;2022-07-23T03:45:12;5.50;;;4.80;;
1382;SDS011;685;47.196;11.880;2022-07-23T03:47:39;5.23;;;4.73;;
1382;SDS011;685;47.196;11.880;2022-07-23T03:50:07;5.80;;;4.53;;
1382;SDS011;685;47.196;11.880;2022-07-23T03:52:34;7.07;;;5.83;;
1382;SDS011;685;47.196;11.880;2022-07-23T03:55:01;5.03;;;4.50;;
1382;SDS011;685;47.196;11.880;2022-07-23T03:57:30;6.53;;;5.40;;
1382;SDS011;685;47.196;11.880;2022-07-23T03:59:57;7.23;;;5.50;;
1382;SDS011;685;47.196;11.880;2022-07-23T04:02:24;6.00;;;4.80;;
1382;SDS011;685;47.196;11.880;2022-07-23T04:04:52;7.80;;;5.30;;
1382;SDS011;685;47.196;11.880;2022-07-23T04:07:18;6.37;;;5.77;;
1382;SDS011;685;47.196;11.880;2022-07-23T04:09:46;6.20;;;5.67;;
1382;SDS011;685;47.196;11.880;2022-07-23T04:12:13;6.73;;;6.13;;
1382;SDS011;685;47.196;11.880;2022-07-23T04:14:42;6.60;;;5.93;;
1382;SDS011;685;47.196;11.880;2022-07-23T04:17:09;5.80;;;5.30;;
1382;SDS011;685;47.196;11.880;2022-07-23T04:19:36;5.63;;;5.07;;
1382;SDS011;685;47.196;11.880;2022-07-23T04:22:05;5.60;;;5.10;;
1382;SDS011;685;47.196;11.880;2022-07-23T04:24:32;5.73;;;5.20;;
1382;SDS011;685;47.196;11.880;2022-07-23T04:27:00;7.13;;;5.30;;
1382;SDS011;685;47.196;11.880;2022-07-23T04:29:27;7.07;;;6.27;;
1382;SDS011;685;47.196;11.880;2022-07-23T04:31:55;5.97;;;5.40;;
1382;SDS011;685;47.196;11.880;2022-07-23T04:34:22;5.40;;;4.90;;
1382;SDS011;685;47.196;11.880;2022-07-23T04:36:51;7.97;;;5.57;;
1382;SDS011;685;47.196;11.880;2022-07-23T04:39:19;6.90;;;6.20;;
1382;SDS011;685;47.196;11.880;2022-07-23T04:41:46;6.40;;;5.73;;
1382;SDS011;685;47.196;11.880;2022-07-23T04:44:13;7.30;;;5.20;;
1382;SDS011;685;47.196;11.880;2022-07-23T04:46:40;5.47;;;5.03;;
1382;SDS011;685;47.196;11.880;2022-07-23T04:49:08;6.53;;;5.80;;
1382;SDS011;685;47.196;11.880;2022-07-23T04:51:35;6.03;;;5.43;;
1382;SDS011;685;47.196;11.880;2022-07-23T04:54:02;5.50;;;5.00;;
1382;SDS011;685;47.196;11.880;2022-07-23T04:56:29;7.60;;;5.93;;
1382;SDS011;685;47.196;11.880;2022-07-23T04:58:56;7.07;;;5.80;;
1382;SDS011;685;47.196;11.880;2022-07-23T05:01:23;5.47;;;4.80;;
1382;SDS011;685;47.196;11.880;2022-07-23T05:03:50;6.80;;;6.03;;
1382;SDS011;685;47.196;11.880;2022-07-23T05:06:18;5.93;;;5.30;;
1382;SDS011;685;47.196;11.880;2022-07-23T05:08:45;7.27;;;5.37;;
1382;SDS011;685;47.196;11.880;2022-07-23T05:11:12;6.87;;;5.63;;
1382;SDS011;685;47.196;11.880;2022-07-23T05:13:39;6.67;;;5.73;;
1382;SDS011;685;47.196;11.880;2022-07-23T05:16:07;8.40;;;5.97;;
1382;SDS011;685;47.196;11.880;2022-07-23T05:18:34;6.07;;;5.47;;
1382;SDS011;685;47.196;11.880;2022-07-23T05:21:00;7.43;;;5.97;;
1382;SDS011;685;47.196;11.880;2022-07-23T05:23:29;6.47;;;5.63;;
1382;SDS011;685;47.196;11.880;2022-07-23T05:25:56;6.43;;;5.80;;
1382;SDS011;685;47.196;11.880;2022-07-23T05:28:23;6.70;;;6.10;;
1382;SDS011;685;47.196;11.880;2022-07-23T05:30:50;6.43;;;5.70;;
1382;SDS011;685;47.196;11.880;2022-07-23T05:33:17;8.97;;;6.47;;
1382;SDS011;685;47.196;11.880;2022-07-23T05:35:45;6.77;;;5.77;;
1382;SDS011;685;47.196;11.880;2022-07-23T05:38:12;7.13;;;6.43;;
1382;SDS011;685;47.196;11.880;2022-07-23T05:40:41;8.13;;;6.53;;
1382;SDS011;685;47.196;11.880;2022-07-23T05:43:08;6.97;;;5.77;;
1382;SDS011;685;47.196;11.880;2022-07-23T05:45:35;6.10;;;5.50;;
1382;SDS011;685;47.196;11.880;2022-07-23T05:48:02;8.00;;;5.33;;
1382;SDS011;685;47.196;11.880;2022-07-23T05:50:29;8.00;;;5.93;;
1382;SDS011;685;47.196;11.880;2022-07-23T05:52:56;5.13;;;4.60;;
1382;SDS011;685;47.196;11.880;2022-07-23T05:55:23;4.17;;;3.77;;
1382;SDS011;685;47.196;11.880;2022-07-23T05:57:52;3.93;;;3.13;;
1382;SDS011;685;47.196;11.880;2022-07-23T06:00:19;5.93;;;4.60;;
1382;SDS011;685;47.196;11.880;2022-07-23T06:02:46;5.87;;;5.20;;
1382;SDS011;685;47.196;11.880;2022-07-23T06:05:13;5.17;;;4.67;;
1382;SDS011;685;47.196;11.880;2022-07-23T06:07:40;5.70;;;4.30;;
1382;SDS011;685;47.196;11.880;2022-07-23T06:10:07;4.83;;;4.10;;
1382;SDS011;685;47.196;11.880;2022-07-23T06:12:35;5.20;;;3.80;;
1382;SDS011;685;47.196;11.880;2022-07-23T06:15:04;4.10;;;3.70;;
1382;SDS011;685;47.196;11.880;2022-07-23T06:17:31;5.10;;;3.87;;
1382;SDS011;685;47.196;11.880;2022-07-23T06:19:58;6.30;;;4.77;;
1382;SDS011;685;47.196;11.880;2022-07-23T06:22:25;4.37;;;3.97;;
1382;SDS011;685;47.196;11.880;2022-07-23T06:24:52;4.30;;;3.90;;
1382;SDS011;685;47.196;11.880;2022-07-23T06:27:19;3.77;;;2.60;;
1382;SDS011;685;47.196;11.880;2022-07-23T06:29:46;3.37;;;2.93;;
1382;SDS011;685;47.196;11.880;2022-07-23T06:32:15;4.70;;;3.33;;
1382;SDS011;685;47.196;11.880;2022-07-23T06:34:42;3.60;;;3.30;;
1382;SDS011;685;47.196;11.880;2022-07-23T06:37:09;3.87;;;2.87;;
1382;SDS011;685;47.196;11.880;2022-07-23T06:39:36;2.83;;;2.50;;
1382;SDS011;685;47.196;11.880;2022-07-23T06:42:03;4.70;;;2.97;;
1382;SDS011;685;47.196;11.880;2022-07-23T06:44:30;3.20;;;2.80;;
1382;SDS011;685;47.196;11.880;2022-07-23T06:46:57;3.37;;;2.33;;
1382;SDS011;685;47.196;11.880;2022-07-23T06:49:25;4.07;;;3.00;;
1382;SDS011;685;47.196;11.880;2022-07-23T06:51:52;2.73;;;2.47;;
1382;SDS011;685;47.196;11.880;2022-07-23T06:54:19;3.77;;;3.20;;
1382;SDS011;685;47.196;11.880;2022-07-23T06:56:46;3.20;;;2.80;;
1382;SDS011;685;47.196;11.880;2022-07-23T06:59:14;3.30;;;2.97;;
1382;SDS011;685;47.196;11.880;2022-07-23T07:01:40;3.53;;;2.40;;
1382;SDS011;685;47.196;11.880;2022-07-23T07:04:08;4.97;;;2.47;;
1382;SDS011;685;47.196;11.880;2022-07-23T07:06:36;3.77;;;3.47;;
1382;SDS011;685;47.196;11.880;2022-07-23T07:09:03;3.47;;;2.53;;
1382;SDS011;685;47.196;11.880;2022-07-23T07:11:30;3.93;;;2.30;;
1382;SDS011;685;47.196;11.880;2022-07-23T07:13:57;2.43;;;1.97;;
1382;SDS011;685;47.196;11.880;2022-07-23T07:16:24;3.03;;;2.63;;
1382;SDS011;685;47.196;11.880;2022-07-23T07:18:51;3.90;;;2.90;;
1382;SDS011;685;47.196;11.880;2022-07-23T07:21:18;5.10;;;3.30;;
1382;SDS011;685;47.196;11.880;2022-07-23T07:23:46;4.43;;;3.27;;
1382;SDS011;685;47.196;11.880;2022-07-23T07:26:13;5.30;;;3.70;;
1382;SDS011;685;47.196;11.880;2022-07-23T07:28:40;4.00;;;2.80;;
1382;SDS011;685;47.196;11.880;2022-07-23T07:31:07;2.80;;;2.23;;
1382;SDS011;685;47.196;11.880;2022-07-23T07:33:34;3.40;;;2.90;;
1382;SDS011;685;47.196;11.880;2022-07-23T07:36:01;2.50;;;2.10;;
1382;SDS011;685;47.196;11.880;2022-07-23T07:38:29;2.40;;;1.93;;
1382;SDS011;685;47.196;11.880;2022-07-23T07:40:57;2.90;;;2.60;;
1382;SDS011;685;47.196;11.880;2022-07-23T07:43:24;3.57;;;2.50;;
1382;SDS011;685;47.196;11.880;2022-07-23T07:45:51;3.20;;;2.90;;
1382;SDS011;685;47.196;11.880;2022-07-23T07:48:18;2.70;;;2.10;;
1382;SDS011;685;47.196;11.880;2022-07-23T07:50:45;2.47;;;2.20;;
1382;SDS011;685;47.196;11.880;2022-07-23T07:53:12;9.00;;;3.57;;
1382;SDS011;685;47.196;11.880;2022-07-23T07:55:39;5.87;;;3.10;;
1382;SDS011;685;47.196;11.880;2022-07-23T07:58:07;4.30;;;2.97;;
1382;SDS011;685;47.196;11.880;2022-07-23T08:00:34;7.33;;;3.73;;
1382;SDS011;685;47.196;11.880;2022-07-23T08:03:01;4.10;;;3.70;;
1382;SDS011;685;47.196;11.880;2022-07-23T08:05:29;5.37;;;3.00;;
1382;SDS011;685;47.196;11.880;2022-07-23T08:07:57;5.53;;;3.47;;
1382;SDS011;685;47.196;11.880;2022-07-23T08:10:26;3.87;;;2.80;;
1382;SDS011;685;47.196;11.880;2022-07-23T08:12:54;6.10;;;3.50;;
1382;SDS011;685;47.196;11.880;2022-07-23T08:15:24;4.37;;;3.40;;
1382;SDS011;685;47.196;11.880;2022-07-23T08:17:52;6.00;;;3.70;;
1382;SDS011;685;47.196;11.880;2022-07-23T08:20:20;4.03;;;3.20;;
1382;SDS011;685;47.196;11.880;2022-07-23T08:22:49;6.77;;;3.70;;
1382;SDS011;685;47.196;11.880;2022-07-23T08:25:19;6.00;;;3.63;;
1382;SDS011;685;47.196;11.880;2022-07-23T08:27:47;5.53;;;3.30;;
1382;SDS011;685;47.196;11.880;2022-07-23T08:30:15;3.70;;;3.40;;
1382;SDS011;685;47.196;11.880;2022-07-23T08:32:54;3.80;;;3.27;;
1382;SDS011;685;47.196;11.880;2022-07-23T08:35:23;5.03;;;3.00;;
1382;SDS011;685;47.196;11.880;2022-07-23T08:37:52;5.00;;;3.73;;
1382;SDS011;685;47.196;11.880;2022-07-23T08:40:19;3.13;;;2.83;;
1382;SDS011;685;47.196;11.880;2022-07-23T08:42:47;3.60;;;2.80;;
1382;SDS011;685;47.196;11.880;2022-07-23T08:45:15;3.70;;;2.70;;
1382;SDS011;685;47.196;11.880;2022-07-23T08:47:44;3.37;;;3.07;;
1382;SDS011;685;47.196;11.880;2022-07-23T08:50:15;3.93;;;2.90;;
1382;SDS011;685;47.196;11.880;2022-07-23T08:52:42;3.13;;;2.80;;
1382;SDS011;685;47.196;11.880;2022-07-23T08:55:09;6.10;;;3.43;;
1382;SDS011;685;47.196;11.880;2022-07-23T08:57:36;5.03;;;3.30;;
1382;SDS011;685;47.196;11.880;2022-07-23T09:00:04;5.67;;;2.70;;
1382;SDS011;685;47.196;11.880;2022-07-23T09:02:37;4.13;;;3.13;;
1382;SDS011;685;47.196;11.880;2022-07-23T09:05:05;3.73;;;2.73;;
1382;SDS011;685;47.196;11.880;2022-07-23T09:07:34;3.23;;;2.93;;
1382;SDS011;685;47.196;11.880;2022-07-23T09:10:05;4.73;;;2.70;;
1382;SDS011;685;47.196;11.880;2022-07-23T09:12:34;2.90;;;2.60;;
1382;SDS011;685;47.196;11.880;2022-07-23T09:15:05;5.07;;;2.83;;
1382;SDS011;685;47.196;11.880;2022-07-23T09:17:38;3.50;;;3.20;;
1382;SDS011;685;47.196;11.880;2022-07-23T09:20:10;3.00;;;2.70;;
1382;SDS011;685;47.196;11.880;2022-07-23T09:22:40;4.03;;;2.50;;
1382;SDS011;685;47.196;11.880;2022-07-23T09:25:12;3.50;;;2.87;;
1382;SDS011;685;47.196;11.880;2022-07-23T09:27:47;4.03;;;2.93;;
1382;SDS011;685;47.196;11.880;2022-07-23T09:30:19;4.30;;;2.90;;
1382;SDS011;685;47.196;11.880;2022-07-23T09:33:03;3.60;;;2.93;;
1382;SDS011;685;47.196;11.880;2022-07-23T09:38:15;3.30;;;3.00;;
1382;SDS011;685;47.196;11.880;2022-07-23T09:40:43;3.80;;;2.90;;
1382;SDS011;685;47.196;11.880;2022-07-23T09:43:11;2.60;;;2.40;;
1382;SDS011;685;47.196;11.880;2022-07-23T09:45:39;3.40;;;2.70;;
1382;SDS011;685;47.196;11.880;2022-07-23T09:48:12;3.67;;;2.80;;
1382;SDS011;685;47.196;11.880;2022-07-23T09:50:40;5.23;;;3.90;;
1382;SDS011;685;47.196;11.880;2022-07-23T09:53:08;4.00;;;3.60;;
1382;SDS011;685;47.196;11.880;2022-07-23T09:55:37;4.57;;;3.80;;
1382;SDS011;685;47.196;11.880;2022-07-23T09:58:05;3.10;;;2.80;;
1382;SDS011;685;47.196;11.880;2022-07-23T10:00:34;3.40;;;3.10;;
1382;SDS011;685;47.196;11.880;2022-07-23T10:03:02;5.23;;;3.83;;
1382;SDS011;685;47.196;11.880;2022-07-23T10:05:31;4.33;;;3.93;;
1382;SDS011;685;47.196;11.880;2022-07-23T10:08:00;4.37;;;3.40;;
1382;SDS011;685;47.196;11.880;2022-07-23T10:10:28;3.40;;;3.10;;
1382;SDS011;685;47.196;11.880;2022-07-23T10:12:59;4.10;;;3.70;;
1382;SDS011;685;47.196;11.880;2022-07-23T10:15:43;5.20;;;3.67;;
1382;SDS011;685;47.196;11.880;2022-07-23T10:18:11;3.03;;;2.40;;
1382;SDS011;685;47.196;11.880;2022-07-23T10:20:38;3.13;;;2.40;;
1382;SDS011;685;47.196;11.880;2022-07-23T10:23:08;3.33;;;3.03;;
1382;SDS011;685;47.196;11.880;2022-07-23T10:25:41;4.37;;;3.20;;
1382;SDS011;685;47.196;11.880;2022-07-23T10:28:30;4.60;;;3.13;;
1382;SDS011;685;47.196;11.880;2022-07-23T10:31:17;3.07;;;2.47;;
1382;SDS011;685;47.196;11.880;2022-07-23T10:33:54;3.40;;;2.90;;
1382;SDS011;685;47.196;11.880;2022-07-23T10:36:39;3.60;;;3.07;;
1382;SDS011;685;47.196;11.880;2022-07-23T10:39:13;6.93;;;4.53;;
1382;SDS011;685;47.196;11.880;2022-07-23T10:41:43;4.20;;;3.37;;
1382;SDS011;685;47.196;11.880;2022-07-23T10:44:12;3.50;;;3.20;;
1382;SDS011;685;47.196;11.880;2022-07-23T10:49:37;3.80;;;3.43;;
1382;SDS011;685;47.196;11.880;2022-07-23T10:52:20;4.83;;;3.67;;
1382;SDS011;685;47.196;11.880;2022-07-23T10:54:49;4.60;;;3.00;;
1382;SDS011;685;47.196;11.880;2022-07-23T10:57:18;4.03;;;3.63;;
1382;SDS011;685;47.196;11.880;2022-07-23T11:02:47;3.13;;;2.50;;
1382;SDS011;685;47.196;11.880;2022-07-23T11:05:16;3.47;;;2.97;;
1382;SDS011;685;47.196;11.880;2022-07-23T11:10:40;4.00;;;3.50;;
1382;SDS011;685;47.196;11.880;2022-07-23T11:13:27;3.77;;;3.37;;
1382;SDS011;685;47.196;11.880;2022-07-23T11:16:13;6.30;;;2.83;;
1382;SDS011;685;47.196;11.880;2022-07-23T11:18:53;3.10;;;2.80;;
1382;SDS011;685;47.196;11.880;2022-07-23T11:21:43;3.03;;;2.73;;
1382;SDS011;685;47.196;11.880;2022-07-23T11:24:15;4.20;;;3.10;;
1382;SDS011;685;47.196;11.880;2022-07-23T11:26:44;3.40;;;3.10;;
1382;SDS011;685;47.196;11.880;2022-07-23T11:29:45;3.20;;;2.83;;
1382;SDS011;685;47.196;11.880;2022-07-23T11:35:20;3.23;;;2.53;;
1382;SDS011;685;47.196;11.880;2022-07-23T11:37:48;4.07;;;2.73;;
1382;SDS011;685;47.196;11.880;2022-07-23T11:40:19;2.60;;;2.40;;
1382;SDS011;685;47.196;11.880;2022-07-23T11:42:51;2.90;;;2.50;;
1382;SDS011;685;47.196;11.880;2022-07-23T11:45:23;2.97;;;2.73;;
1382;SDS011;685;47.196;11.880;2022-07-23T11:47:52;2.90;;;2.30;;
1382;SDS011;685;47.196;11.880;2022-07-23T11:50:22;3.43;;;2.20;;
1382;SDS011;685;47.196;11.880;2022-07-23T11:52:50;2.90;;;2.33;;
1382;SDS011;685;47.196;11.880;2022-07-23T11:55:17;2.80;;;2.50;;
1382;SDS011;685;47.196;11.880;2022-07-23T11:57:44;4.10;;;2.53;;
1382;SDS011;685;47.196;11.880;2022-07-23T12:00:12;4.20;;;3.10;;
1382;SDS011;685;47.196;11.880;2022-07-23T12:02:41;4.33;;;2.43;;
1382;SDS011;685;47.196;11.880;2022-07-23T12:05:12;3.30;;;2.73;;
1382;SDS011;685;47.196;11.880;2022-07-23T12:07:40;3.33;;;2.40;;
1382;SDS011;685;47.196;11.880;2022-07-23T12:10:10;4.20;;;3.80;;
1382;SDS011;685;47.196;11.880;2022-07-23T12:12:41;3.30;;;3.00;;
1382;SDS011;685;47.196;11.880;2022-07-23T12:15:10;10.10;;;3.73;;
1382;SDS011;685;47.196;11.880;2022-07-23T12:17:38;3.60;;;2.90;;
1382;SDS011;685;47.196;11.880;2022-07-23T12:20:08;3.70;;;2.93;;
1382;SDS011;685;47.196;11.880;2022-07-23T12:22:39;3.80;;;3.40;;
1382;SDS011;685;47.196;11.880;2022-07-23T12:25:08;5.20;;;3.83;;
1382;SDS011;685;47.196;11.880;2022-07-23T12:27:37;4.40;;;3.93;;
1382;SDS011;685;47.196;11.880;2022-07-23T12:30:15;3.80;;;3.30;;
1382;SDS011;685;47.196;11.880;2022-07-23T12:32:43;4.27;;;3.87;;
1382;SDS011;685;47.196;11.880;2022-07-23T12:35:11;3.80;;;3.47;;
1382;SDS011;685;47.196;11.880;2022-07-23T12:37:41;3.70;;;2.97;;
1382;SDS011;685;47.196;11.880;2022-07-23T12:40:22;3.20;;;2.63;;
1382;SDS011;685;47.196;11.880;2022-07-23T12:42:54;3.90;;;2.97;;
1382;SDS011;685;47.196;11.880;2022-07-23T12:45:24;3.67;;;2.90;;
1382;SDS011;685;47.196;11.880;2022-07-23T12:47:59;4.07;;;3.13;;
1382;SDS011;685;47.196;11.880;2022-07-23T12:50:34;3.80;;;3.40;;
1382;SDS011;685;47.196;11.880;2022-07-23T12:53:05;5.17;;;3.90;;
1382;SDS011;685;47.196;11.880;2022-07-23T12:55:33;3.10;;;2.80;;
1382;SDS011;685;47.196;11.880;2022-07-23T12:58:05;7.80;;;3.67;;
1382;SDS011;685;47.196;11.880;2022-07-23T13:00:48;3.53;;;2.97;;
1382;SDS011;685;47.196;11.880;2022-07-23T13:03:24;5.00;;;3.27;;
1382;SDS011;685;47.196;11.880;2022-07-23T13:05:53;4.17;;;2.77;;
1382;SDS011;685;47.196;11.880;2022-07-23T13:08:22;3.50;;;2.57;;
1382;SDS011;685;47.196;11.880;2022-07-23T13:10:50;3.00;;;2.43;;
1382;SDS011;685;47.196;11.880;2022-07-23T13:13:20;2.67;;;2.40;;
1382;SDS011;685;47.196;11.880;2022-07-23T13:15:48;2.90;;;2.30;;
1382;SDS011;685;47.196;11.880;2022-07-23T13:18:16;3.13;;;2.83;;
1382;SDS011;685;47.196;11.880;2022-07-23T13:20:44;4.60;;;3.67;;
1382;SDS011;685;47.196;11.880;2022-07-23T13:23:11;5.30;;;4.10;;
1382;SDS011;685;47.196;11.880;2022-07-23T13:25:40;3.43;;;3.10;;
1382;SDS011;685;47.196;11.880;2022-07-23T13:28:07;3.70;;;3.20;;
1382;SDS011;685;47.196;11.880;2022-07-23T13:30:34;3.67;;;3.00;;
1382;SDS011;685;47.196;11.880;2022-07-23T13:33:02;4.53;;;3.40;;
1382;SDS011;685;47.196;11.880;2022-07-23T13:35:31;4.60;;;3.40;;
1382;SDS011;685;47.196;11.880;2022-07-23T13:37:58;9.10;;;3.70;;
1382;SDS011;685;47.196;11.880;2022-07-23T13:40:25;4.40;;;4.00;;
1382;SDS011;685;47.196;11.880;2022-07-23T13:42:53;3.63;;;3.30;;
1382;SDS011;685;47.196;11.880;2022-07-23T13:45:21;3.30;;;2.80;;
1382;SDS011;685;47.196;11.880;2022-07-23T13:47:48;4.00;;;3.17;;
1382;SDS011;685;47.196;11.880;2022-07-23T13:50:15;3.77;;;2.83;;
1382;SDS011;685;47.196;11.880;2022-07-23T13:52:42;3.60;;;2.80;;
1382;SDS011;685;47.196;11.880;2022-07-23T13:55:09;3.63;;;3.17;;
1382;SDS011;685;47.196;11.880;2022-07-23T13:57:36;12.03;;;3.63;;
1382;SDS011;685;47.196;11.880;2022-07-23T14:00:05;3.50;;;3.20;;
1382;SDS011;685;47.196;11.880;2022-07-23T14:02:34;3.60;;;3.30;;
1382;SDS011;685;47.196;11.880;2022-07-23T14:05:03;3.53;;;3.23;;
1382;SDS011;685;47.196;11.880;2022-07-23T14:07:31;6.17;;;3.20;;
1382;SDS011;685;47.196;11.880;2022-07-23T14:09:58;3.23;;;2.90;;
1382;SDS011;685;47.196;11.880;2022-07-23T14:12:25;3.97;;;3.10;;
1382;SDS011;685;47.196;11.880;2022-07-23T14:14:52;4.30;;;3.33;;
1382;SDS011;685;47.196;11.880;2022-07-23T14:17:21;5.33;;;3.37;;
1382;SDS011;685;47.196;11.880;2022-07-23T14:19:48;3.70;;;3.00;;
1382;SDS011;685;47.196;11.880;2022-07-23T14:22:15;6.60;;;3.70;;
1382;SDS011;685;47.196;11.880;2022-07-23T14:24:42;3.30;;;3.00;;
1382;SDS011;685;47.196;11.880;2022-07-23T14:27:09;4.63;;;3.70;;
1382;SDS011;685;47.196;11.880;2022-07-23T14:29:36;4.67;;;3.60;;
1382;SDS011;685;47.196;11.880;2022-07-23T14:32:03;4.67;;;4.17;;
1382;SDS011;685;47.196;11.880;2022-07-23T14:34:33;4.07;;;3.60;;
1382;SDS011;685;47.196;11.880;2022-07-23T14:37:01;4.47;;;2.90;;
1382;SDS011;685;47.196;11.880;2022-07-23T14:39:28;4.47;;;3.63;;
1382;SDS011;685;47.196;11.880;2022-07-23T14:41:56;4.40;;;3.30;;
1382;SDS011;685;47.196;11.880;2022-07-23T14:44:23;4.87;;;4.37;;
1382;SDS011;685;47.196;11.880;2022-07-23T14:46:50;4.70;;;4.17;;
1382;SDS011;685;47.196;11.880;2022-07-23T14:49:17;5.60;;;3.73;;
1382;SDS011;685;47.196;11.880;2022-07-23T14:51:45;4.30;;;3.60;;
1382;SDS011;685;47.196;11.880;2022-07-23T14:54:12;4.00;;;3.57;;
1382;SDS011;685;47.196;11.880;2022-07-23T14:56:39;4.50;;;4.10;;
1382;SDS011;685;47.196;11.880;2022-07-23T14:59:07;6.07;;;4.17;;
1382;SDS011;685;47.196;11.880;2022-07-23T15:01:35;5.70;;;4.50;;
1382;SDS011;685;47.196;11.880;2022-07-23T15:04:02;9.70;;;4.70;;
1382;SDS011;685;47.196;11.880;2022-07-23T15:06:29;4.40;;;4.00;;
1382;SDS011;685;47.196;11.880;2022-07-23T15:08:58;7.73;;;5.30;;
1382;SDS011;685;47.196;11.880;2022-07-23T15:11:26;5.13;;;4.57;;
1382;SDS011;685;47.196;11.880;2022-07-23T15:13:54;5.27;;;4.03;;
1382;SDS011;685;47.196;11.880;2022-07-23T15:16:21;5.37;;;4.20;;
1382;SDS011;685;47.196;11.880;2022-07-23T15:18:48;5.17;;;4.67;;
1382;SDS011;685;47.196;11.880;2022-07-23T15:21:16;6.07;;;4.63;;
1382;SDS011;685;47.196;11.880;2022-07-23T15:23:43;6.53;;;4.97;;
1382;SDS011;685;47.196;11.880;2022-07-23T15:26:12;5.93;;;4.90;;
1382;SDS011;685;47.196;11.880;2022-07-23T15:28:41;5.33;;;4.80;;
1382;SDS011;685;47.196;11.880;2022-07-23T15:31:08;5.37;;;4.87;;
1382;SDS011;685;47.196;11.880;2022-07-23T15:33:35;4.90;;;4.40;;
1382;SDS011;685;47.196;11.880;2022-07-23T15:36:03;5.10;;;4.50;;
1382;SDS011;685;47.196;11.880;2022-07-23T15:38:31;5.60;;;5.10;;